sensor_id;sensor_type;location;lat;lon;timestamp;P1;durP1;ratioP1;P2;durP2;ratioP2
58784;SDS011;44557;51.862;19.378;2024-03-23T00:54:27;26.60;;;18.20;;
58784;SDS011;44557;51.862;19.378;2024-03-23T00:56:29;26.20;;;18.50;;
58784;SDS011;44557;51.862;19.378;2024-03-23T00:58:31;25.40;;;17.60;;
58784;SDS011;44557;51.862;19.378;2024-03-23T01:00:33;25.40;;;17.20;;
58784;SDS011;44557;51.862;19.378;2024-03-23T01:02:35;26.10;;;18.30;;
58784;SDS011;44557;51.862;19.378;2024-03-23T01:04:37;23.60;;;17.50;;
58784;SDS011;44557;51.862;19.378;2024-03-23T01:06:38;25.40;;;18.10;;
58784;SDS011;44557;51.862;19.378;2024-03-23T01:08:40;28.40;;;19.00;;
58784;SDS011;44557;51.862;19.378;2024-03-23T01:10:42;24.70;;;18.40;;
58784;SDS011;44557;51.862;19.378;2024-03-23T01:12:43;28.30;;;18.30;;
58784;SDS011;44557;51.862;19.378;2024-03-23T01:14:45;27.70;;;19.20;;
58784;SDS011;44557;51.862;19.378;2024-03-23T01:16:47;28.00;;;18.80;;
58784;SDS011;44557;51.862;19.378;2024-03-23T01:18:49;27.00;;;20.10;;
58784;SDS011;44557;51.862;19.378;2024-03-23T01:20:50;27.10;;;19.40;;
58784;SDS011;44557;51.862;19.378;2024-03-23T01:22:52;29.60;;;20.40;;
58784;SDS011;44557;51.862;19.378;2024-03-23T01:24:53;28.70;;;19.10;;
58784;SDS011;44557;51.862;19.378;2024-03-23T01:26:55;28.60;;;20.50;;
58784;SDS011;44557;51.862;19.378;2024-03-23T01:28:57;30.70;;;21.20;;
58784;SDS011;44557;51.862;19.378;2024-03-23T01:30:58;29.80;;;20.20;;
58784;SDS011;44557;51.862;19.378;2024-03-23T01:33:00;28.50;;;20.10;;
58784;SDS011;44557;51.862;19.378;2024-03-23T01:35:02;29.80;;;20.70;;
58784;SDS011;44557;51.862;19.378;2024-03-23T01:37:05;29.40;;;21.30;;
58784;SDS011;44557;51.862;19.378;2024-03-23T01:39:06;28.20;;;20.30;;
58784;SDS011;44557;51.862;19.378;2024-03-23T01:41:11;28.80;;;19.50;;
58784;SDS011;44557;51.862;19.378;2024-03-23T01:43:12;29.40;;;18.90;;
58784;SDS011;44557;51.862;19.378;2024-03-23T01:45:14;29.20;;;19.70;;
58784;SDS011;44557;51.862;19.378;2024-03-23T01:47:16;30.20;;;19.80;;
58784;SDS011;44557;51.862;19.378;2024-03-23T01:49:18;30.00;;;20.80;;
58784;SDS011;44557;51.862;19.378;2024-03-23T01:51:21;28.40;;;19.90;;
58784;SDS011;44557;51.862;19.378;2024-03-23T01:53:25;28.20;;;19.60;;
58784;SDS011;44557;51.862;19.378;2024-03-23T01:55:27;28.60;;;19.90;;
58784;SDS011;44557;51.862;19.378;2024-03-23T01:57:30;29.80;;;20.20;;
58784;SDS011;44557;51.862;19.378;2024-03-23T01:59:32;29.60;;;20.40;;
58784;SDS011;44557;51.862;19.378;2024-03-23T02:01:35;29.20;;;18.90;;
58784;SDS011;44557;51.862;19.378;2024-03-23T02:03:39;28.00;;;19.80;;
58784;SDS011;44557;51.862;19.378;2024-03-23T02:05:41;31.20;;;20.50;;
58784;SDS011;44557;51.862;19.378;2024-03-23T02:07:43;29.90;;;20.20;;
58784;SDS011;44557;51.862;19.378;2024-03-23T02:09:45;27.70;;;19.40;;
58784;SDS011;44557;51.862;19.378;2024-03-23T02:11:47;30.30;;;20.50;;
58784;SDS011;44557;51.862;19.378;2024-03-23T02:13:49;29.30;;;21.30;;
58784;SDS011;44557;51.862;19.378;2024-03-23T02:15:50;26.90;;;19.00;;
58784;SDS011;44557;51.862;19.378;2024-03-23T02:17:52;28.00;;;19.60;;
58784;SDS011;44557;51.862;19.378;2024-03-23T02:19:54;28.80;;;20.30;;
58784;SDS011;44557;51.862;19.378;2024-03-23T02:21:56;27.00;;;19.30;;
58784;SDS011;44557;51.862;19.378;2024-03-23T02:23:59;28.20;;;19.40;;
58784;SDS011;44557;51.862;19.378;2024-03-23T02:26:01;27.30;;;20.10;;
58784;SDS011;44557;51.862;19.378;2024-03-23T02:28:03;29.90;;;20.30;;
58784;SDS011;44557;51.862;19.378;2024-03-23T02:30:06;28.80;;;20.30;;
58784;SDS011;44557;51.862;19.378;2024-03-23T02:32:08;29.40;;;20.30;;
58784;SDS011;44557;51.862;19.378;2024-03-23T02:34:13;30.30;;;22.10;;
58784;SDS011;44557;51.862;19.378;2024-03-23T02:36:14;28.60;;;20.00;;
58784;SDS011;44557;51.862;19.378;2024-03-23T02:38:17;26.80;;;20.30;;
58784;SDS011;44557;51.862;19.378;2024-03-23T02:40:19;27.50;;;19.50;;
58784;SDS011;44557;51.862;19.378;2024-03-23T02:42:22;30.20;;;19.70;;
58784;SDS011;44557;51.862;19.378;2024-03-23T02:44:24;26.20;;;19.50;;
58784;SDS011;44557;51.862;19.378;2024-03-23T02:46:26;27.60;;;19.90;;
58784;SDS011;44557;51.862;19.378;2024-03-23T02:48:27;27.30;;;18.90;;
58784;SDS011;44557;51.862;19.378;2024-03-23T02:50:29;26.80;;;20.60;;
58784;SDS011;44557;51.862;19.378;2024-03-23T02:52:31;27.60;;;20.10;;
58784;SDS011;44557;51.862;19.378;2024-03-23T02:54:33;29.90;;;20.60;;
58784;SDS011;44557;51.862;19.378;2024-03-23T02:56:34;27.30;;;18.70;;
58784;SDS011;44557;51.862;19.378;2024-03-23T02:58:36;25.50;;;18.50;;
58784;SDS011;44557;51.862;19.378;2024-03-23T03:00:38;26.50;;;18.60;;
58784;SDS011;44557;51.862;19.378;2024-03-23T03:02:40;26.70;;;19.30;;
58784;SDS011;44557;51.862;19.378;2024-03-23T03:04:42;27.00;;;19.50;;
58784;SDS011;44557;51.862;19.378;2024-03-23T03:06:47;26.10;;;18.50;;
58784;SDS011;44557;51.862;19.378;2024-03-23T03:08:49;25.80;;;19.10;;
58784;SDS011;44557;51.862;19.378;2024-03-23T03:10:51;25.70;;;19.40;;
58784;SDS011;44557;51.862;19.378;2024-03-23T03:12:53;26.60;;;18.30;;
58784;SDS011;44557;51.862;19.378;2024-03-23T03:14:54;26.70;;;20.10;;
58784;SDS011;44557;51.862;19.378;2024-03-23T03:16:56;27.30;;;19.80;;
58784;SDS011;44557;51.862;19.378;2024-03-23T03:18:58;27.60;;;18.70;;
58784;SDS011;44557;51.862;19.378;2024-03-23T03:20:59;27.40;;;19.70;;
58784;SDS011;44557;51.862;19.378;2024-03-23T03:23:01;26.30;;;19.20;;
58784;SDS011;44557;51.862;19.378;2024-03-23T03:25:03;30.30;;;20.20;;
58784;SDS011;44557;51.862;19.378;2024-03-23T03:27:05;28.00;;;19.50;;
58784;SDS011;44557;51.862;19.378;2024-03-23T03:29:09;29.50;;;20.90;;
58784;SDS011;44557;51.862;19.378;2024-03-23T03:31:11;28.80;;;19.60;;
58784;SDS011;44557;51.862;19.378;2024-03-23T03:33:13;26.70;;;19.20;;
58784;SDS011;44557;51.862;19.378;2024-03-23T03:35:14;28.60;;;20.70;;
58784;SDS011;44557;51.862;19.378;2024-03-23T03:37:16;27.50;;;20.30;;
58784;SDS011;44557;51.862;19.378;2024-03-23T03:39:18;27.90;;;19.40;;
58784;SDS011;44557;51.862;19.378;2024-03-23T03:41:20;25.40;;;18.80;;
58784;SDS011;44557;51.862;19.378;2024-03-23T03:43:22;24.50;;;18.90;;
58784;SDS011;44557;51.862;19.378;2024-03-23T03:45:23;28.10;;;19.60;;
58784;SDS011;44557;51.862;19.378;2024-03-23T03:47:25;25.00;;;18.00;;
58784;SDS011;44557;51.862;19.378;2024-03-23T03:49:27;27.40;;;18.70;;
58784;SDS011;44557;51.862;19.378;2024-03-23T03:51:29;28.80;;;20.10;;
58784;SDS011;44557;51.862;19.378;2024-03-23T03:53:30;25.50;;;18.90;;
58784;SDS011;44557;51.862;19.378;2024-03-23T03:55:32;25.30;;;18.80;;
58784;SDS011;44557;51.862;19.378;2024-03-23T03:57:33;28.30;;;20.90;;
58784;SDS011;44557;51.862;19.378;2024-03-23T03:59:35;29.00;;;19.80;;
58784;SDS011;44557;51.862;19.378;2024-03-23T04:01:37;27.30;;;18.80;;
58784;SDS011;44557;51.862;19.378;2024-03-23T04:03:38;28.20;;;19.30;;
58784;SDS011;44557;51.862;19.378;2024-03-23T04:05:51;27.50;;;19.50;;
58784;SDS011;44557;51.862;19.378;2024-03-23T04:07:57;28.80;;;20.90;;
58784;SDS011;44557;51.862;19.378;2024-03-23T04:09:58;29.20;;;20.00;;
58784;SDS011;44557;51.862;19.378;2024-03-23T04:12:00;30.40;;;21.10;;
58784;SDS011;44557;51.862;19.378;2024-03-23T04:14:02;29.20;;;21.20;;
58784;SDS011;44557;51.862;19.378;2024-03-23T04:16:04;28.80;;;20.80;;
58784;SDS011;44557;51.862;19.378;2024-03-23T04:18:06;30.00;;;20.70;;
58784;SDS011;44557;51.862;19.378;2024-03-23T04:20:08;29.60;;;19.80;;
58784;SDS011;44557;51.862;19.378;2024-03-23T04:22:12;26.80;;;18.40;;
58784;SDS011;44557;51.862;19.378;2024-03-23T04:24:14;29.90;;;20.20;;
58784;SDS011;44557;51.862;19.378;2024-03-23T04:26:16;30.00;;;21.30;;
58784;SDS011;44557;51.862;19.378;2024-03-23T04:28:19;32.20;;;22.60;;
58784;SDS011;44557;51.862;19.378;2024-03-23T04:30:20;32.30;;;23.00;;
58784;SDS011;44557;51.862;19.378;2024-03-23T04:32:23;30.90;;;22.40;;
58784;SDS011;44557;51.862;19.378;2024-03-23T04:34:24;31.30;;;22.40;;
58784;SDS011;44557;51.862;19.378;2024-03-23T04:36:28;29.20;;;20.80;;
58784;SDS011;44557;51.862;19.378;2024-03-23T04:38:29;29.30;;;20.90;;
58784;SDS011;44557;51.862;19.378;2024-03-23T04:40:32;30.70;;;20.30;;
58784;SDS011;44557;51.862;19.378;2024-03-23T04:42:34;28.80;;;20.00;;
58784;SDS011;44557;51.862;19.378;2024-03-23T04:44:36;27.60;;;19.80;;
58784;SDS011;44557;51.862;19.378;2024-03-23T04:46:38;30.00;;;20.70;;
58784;SDS011;44557;51.862;19.378;2024-03-23T04:48:40;26.90;;;20.00;;
58784;SDS011;44557;51.862;19.378;2024-03-23T04:50:42;26.40;;;18.10;;
58784;SDS011;44557;51.862;19.378;2024-03-23T04:52:44;35.60;;;19.70;;
58784;SDS011;44557;51.862;19.378;2024-03-23T04:54:45;27.30;;;19.00;;
58784;SDS011;44557;51.862;19.378;2024-03-23T04:56:48;25.80;;;18.00;;
58784;SDS011;44557;51.862;19.378;2024-03-23T04:58:50;27.90;;;18.80;;
58784;SDS011;44557;51.862;19.378;2024-03-23T05:00:55;27.10;;;17.90;;
58784;SDS011;44557;51.862;19.378;2024-03-23T05:02:58;26.60;;;17.90;;
58784;SDS011;44557;51.862;19.378;2024-03-23T05:05:00;28.60;;;18.00;;
58784;SDS011;44557;51.862;19.378;2024-03-23T05:07:02;26.50;;;17.00;;
58784;SDS011;44557;51.862;19.378;2024-03-23T05:09:05;25.60;;;16.40;;
58784;SDS011;44557;51.862;19.378;2024-03-23T05:11:09;26.50;;;16.30;;
58784;SDS011;44557;51.862;19.378;2024-03-23T05:13:12;24.70;;;16.40;;
58784;SDS011;44557;51.862;19.378;2024-03-23T05:15:14;27.90;;;18.10;;
58784;SDS011;44557;51.862;19.378;2024-03-23T05:17:15;26.10;;;17.40;;
58784;SDS011;44557;51.862;19.378;2024-03-23T05:19:17;24.60;;;17.30;;
58784;SDS011;44557;51.862;19.378;2024-03-23T05:21:19;25.90;;;16.80;;
58784;SDS011;44557;51.862;19.378;2024-03-23T05:23:21;24.40;;;15.60;;
58784;SDS011;44557;51.862;19.378;2024-03-23T05:25:23;25.40;;;16.60;;
58784;SDS011;44557;51.862;19.378;2024-03-23T05:27:26;28.10;;;17.80;;
58784;SDS011;44557;51.862;19.378;2024-03-23T05:29:28;24.00;;;16.20;;
58784;SDS011;44557;51.862;19.378;2024-03-23T05:31:31;25.90;;;17.20;;
58784;SDS011;44557;51.862;19.378;2024-03-23T05:33:33;24.70;;;16.30;;
58784;SDS011;44557;51.862;19.378;2024-03-23T05:35:34;25.80;;;17.00;;
58784;SDS011;44557;51.862;19.378;2024-03-23T05:37:36;23.40;;;15.90;;
58784;SDS011;44557;51.862;19.378;2024-03-23T05:39:38;25.50;;;17.80;;
58784;SDS011;44557;51.862;19.378;2024-03-23T05:41:40;24.00;;;17.30;;
58784;SDS011;44557;51.862;19.378;2024-03-23T05:43:42;23.80;;;16.60;;
58784;SDS011;44557;51.862;19.378;2024-03-23T05:45:44;24.00;;;15.90;;
58784;SDS011;44557;51.862;19.378;2024-03-23T05:47:45;21.40;;;15.50;;
58784;SDS011;44557;51.862;19.378;2024-03-23T05:49:47;20.80;;;15.10;;
58784;SDS011;44557;51.862;19.378;2024-03-23T05:51:49;22.40;;;15.60;;
58784;SDS011;44557;51.862;19.378;2024-03-23T05:53:51;22.70;;;14.80;;
58784;SDS011;44557;51.862;19.378;2024-03-23T05:56:00;22.50;;;15.20;;
58784;SDS011;44557;51.862;19.378;2024-03-23T05:58:04;24.90;;;15.60;;
58784;SDS011;44557;51.862;19.378;2024-03-23T06:00:07;23.20;;;14.80;;
58784;SDS011;44557;51.862;19.378;2024-03-23T06:02:17;22.10;;;14.00;;
58784;SDS011;44557;51.862;19.378;2024-03-23T06:04:19;22.90;;;15.50;;
58784;SDS011;44557;51.862;19.378;2024-03-23T06:06:20;21.70;;;14.10;;
58784;SDS011;44557;51.862;19.378;2024-03-23T06:08:22;21.50;;;14.90;;
58784;SDS011;44557;51.862;19.378;2024-03-23T06:10:25;23.50;;;15.20;;
58784;SDS011;44557;51.862;19.378;2024-03-23T06:12:27;23.00;;;14.60;;
58784;SDS011;44557;51.862;19.378;2024-03-23T06:14:28;23.80;;;14.60;;
58784;SDS011;44557;51.862;19.378;2024-03-23T06:16:31;21.80;;;14.80;;
58784;SDS011;44557;51.862;19.378;2024-03-23T06:18:32;24.20;;;14.90;;
58784;SDS011;44557;51.862;19.378;2024-03-23T06:20:34;21.50;;;14.80;;
58784;SDS011;44557;51.862;19.378;2024-03-23T06:22:36;23.20;;;15.40;;
58784;SDS011;44557;51.862;19.378;2024-03-23T06:24:38;21.60;;;13.60;;
58784;SDS011;44557;51.862;19.378;2024-03-23T06:26:40;22.00;;;14.50;;
58784;SDS011;44557;51.862;19.378;2024-03-23T06:28:42;20.60;;;14.50;;
58784;SDS011;44557;51.862;19.378;2024-03-23T06:30:43;21.40;;;13.90;;
58784;SDS011;44557;51.862;19.378;2024-03-23T06:32:45;20.70;;;14.00;;
58784;SDS011;44557;51.862;19.378;2024-03-23T06:34:47;22.50;;;15.10;;
58784;SDS011;44557;51.862;19.378;2024-03-23T06:36:48;21.20;;;14.90;;
58784;SDS011;44557;51.862;19.378;2024-03-23T06:38:51;22.90;;;14.80;;
58784;SDS011;44557;51.862;19.378;2024-03-23T06:40:54;22.70;;;15.40;;
58784;SDS011;44557;51.862;19.378;2024-03-23T06:42:55;22.40;;;14.30;;
58784;SDS011;44557;51.862;19.378;2024-03-23T06:44:57;22.10;;;14.30;;
58784;SDS011;44557;51.862;19.378;2024-03-23T06:46:59;20.30;;;14.30;;
58784;SDS011;44557;51.862;19.378;2024-03-23T06:49:01;21.40;;;13.20;;
58784;SDS011;44557;51.862;19.378;2024-03-23T06:51:04;19.00;;;12.60;;
58784;SDS011;44557;51.862;19.378;2024-03-23T06:53:07;22.00;;;14.10;;
58784;SDS011;44557;51.862;19.378;2024-03-23T06:55:09;20.70;;;13.80;;
58784;SDS011;44557;51.862;19.378;2024-03-23T06:57:11;20.00;;;13.10;;
58784;SDS011;44557;51.862;19.378;2024-03-23T06:59:13;24.00;;;14.90;;
58784;SDS011;44557;51.862;19.378;2024-03-23T07:01:15;21.10;;;13.90;;
58784;SDS011;44557;51.862;19.378;2024-03-23T07:03:17;22.00;;;14.70;;
58784;SDS011;44557;51.862;19.378;2024-03-23T07:05:19;21.70;;;14.10;;
58784;SDS011;44557;51.862;19.378;2024-03-23T07:07:21;20.90;;;14.20;;
58784;SDS011;44557;51.862;19.378;2024-03-23T07:09:23;23.90;;;14.70;;
58784;SDS011;44557;51.862;19.378;2024-03-23T07:11:27;22.20;;;14.70;;
58784;SDS011;44557;51.862;19.378;2024-03-23T07:13:29;21.70;;;13.00;;
58784;SDS011;44557;51.862;19.378;2024-03-23T07:15:31;19.80;;;13.50;;
58784;SDS011;44557;51.862;19.378;2024-03-23T07:17:32;20.50;;;13.30;;
58784;SDS011;44557;51.862;19.378;2024-03-23T07:19:36;21.20;;;14.00;;
58784;SDS011;44557;51.862;19.378;2024-03-23T07:21:37;20.10;;;13.10;;
58784;SDS011;44557;51.862;19.378;2024-03-23T07:23:41;20.00;;;12.60;;
58784;SDS011;44557;51.862;19.378;2024-03-23T07:25:55;18.50;;;12.60;;
58784;SDS011;44557;51.862;19.378;2024-03-23T07:27:58;18.40;;;11.90;;
58784;SDS011;44557;51.862;19.378;2024-03-23T07:30:01;18.50;;;11.90;;
58784;SDS011;44557;51.862;19.378;2024-03-23T07:32:02;19.00;;;12.20;;
58784;SDS011;44557;51.862;19.378;2024-03-23T07:34:04;20.30;;;11.90;;
58784;SDS011;44557;51.862;19.378;2024-03-23T07:36:07;18.20;;;12.50;;
58784;SDS011;44557;51.862;19.378;2024-03-23T07:38:08;21.50;;;12.80;;
58784;SDS011;44557;51.862;19.378;2024-03-23T07:40:10;18.10;;;11.40;;
58784;SDS011;44557;51.862;19.378;2024-03-23T07:42:14;14.90;;;10.40;;
58784;SDS011;44557;51.862;19.378;2024-03-23T07:44:16;16.50;;;9.80;;
58784;SDS011;44557;51.862;19.378;2024-03-23T07:46:18;16.70;;;10.80;;
58784;SDS011;44557;51.862;19.378;2024-03-23T07:48:21;16.00;;;10.50;;
58784;SDS011;44557;51.862;19.378;2024-03-23T07:50:26;15.40;;;10.10;;
58784;SDS011;44557;51.862;19.378;2024-03-23T07:52:29;15.60;;;10.50;;
58784;SDS011;44557;51.862;19.378;2024-03-23T07:54:31;17.40;;;11.30;;
58784;SDS011;44557;51.862;19.378;2024-03-23T07:56:33;17.50;;;10.80;;
58784;SDS011;44557;51.862;19.378;2024-03-23T07:58:35;15.40;;;9.90;;
58784;SDS011;44557;51.862;19.378;2024-03-23T08:00:37;15.90;;;10.50;;
58784;SDS011;44557;51.862;19.378;2024-03-23T08:02:39;16.90;;;10.90;;
58784;SDS011;44557;51.862;19.378;2024-03-23T08:04:41;15.60;;;10.70;;
58784;SDS011;44557;51.862;19.378;2024-03-23T08:06:43;16.20;;;10.80;;
58784;SDS011;44557;51.862;19.378;2024-03-23T08:08:46;15.60;;;10.70;;
58784;SDS011;44557;51.862;19.378;2024-03-23T08:10:49;18.50;;;11.30;;
58784;SDS011;44557;51.862;19.378;2024-03-23T08:12:52;17.90;;;12.80;;
58784;SDS011;44557;51.862;19.378;2024-03-23T08:14:53;17.60;;;12.00;;
58784;SDS011;44557;51.862;19.378;2024-03-23T08:16:55;19.20;;;12.10;;
58784;SDS011;44557;51.862;19.378;2024-03-23T08:18:57;18.10;;;12.10;;
58784;SDS011;44557;51.862;19.378;2024-03-23T08:20:59;15.80;;;10.40;;
58784;SDS011;44557;51.862;19.378;2024-03-23T08:23:03;17.80;;;10.00;;
58784;SDS011;44557;51.862;19.378;2024-03-23T08:25:06;14.10;;;9.90;;
58784;SDS011;44557;51.862;19.378;2024-03-23T08:27:08;16.40;;;10.30;;
58784;SDS011;44557;51.862;19.378;2024-03-23T08:29:09;16.00;;;10.60;;
58784;SDS011;44557;51.862;19.378;2024-03-23T08:31:11;15.70;;;10.30;;
58784;SDS011;44557;51.862;19.378;2024-03-23T08:33:13;13.20;;;9.00;;
58784;SDS011;44557;51.862;19.378;2024-03-23T08:35:15;15.40;;;9.50;;
58784;SDS011;44557;51.862;19.378;2024-03-23T08:37:18;13.40;;;9.00;;
58784;SDS011;44557;51.862;19.378;2024-03-23T08:39:20;13.90;;;8.70;;
58784;SDS011;44557;51.862;19.378;2024-03-23T08:41:22;13.80;;;9.40;;
58784;SDS011;44557;51.862;19.378;2024-03-23T08:43:23;14.90;;;9.00;;
58784;SDS011;44557;51.862;19.378;2024-03-23T08:45:26;12.70;;;8.20;;
58784;SDS011;44557;51.862;19.378;2024-03-23T08:47:27;14.20;;;8.90;;
58784;SDS011;44557;51.862;19.378;2024-03-23T08:49:29;13.20;;;8.70;;
58784;SDS011;44557;51.862;19.378;2024-03-23T08:51:32;12.60;;;8.10;;
58784;SDS011;44557;51.862;19.378;2024-03-23T08:53:34;13.20;;;8.90;;
58784;SDS011;44557;51.862;19.378;2024-03-23T08:55:36;12.40;;;8.80;;
58784;SDS011;44557;51.862;19.378;2024-03-23T08:57:38;13.30;;;8.50;;
58784;SDS011;44557;51.862;19.378;2024-03-23T08:59:42;14.00;;;8.70;;
58784;SDS011;44557;51.862;19.378;2024-03-23T09:01:44;14.40;;;9.40;;
58784;SDS011;44557;51.862;19.378;2024-03-23T09:03:46;15.10;;;9.30;;
58784;SDS011;44557;51.862;19.378;2024-03-23T09:05:48;14.10;;;8.20;;
58784;SDS011;44557;51.862;19.378;2024-03-23T09:07:51;13.30;;;8.40;;
58784;SDS011;44557;51.862;19.378;2024-03-23T09:09:52;13.40;;;8.70;;
58784;SDS011;44557;51.862;19.378;2024-03-23T09:11:54;15.50;;;8.90;;
58784;SDS011;44557;51.862;19.378;2024-03-23T09:13:56;14.10;;;8.20;;
58784;SDS011;44557;51.862;19.378;2024-03-23T09:15:58;13.10;;;8.60;;
58784;SDS011;44557;51.862;19.378;2024-03-23T09:17:59;14.10;;;8.00;;
58784;SDS011;44557;51.862;19.378;2024-03-23T09:20:01;14.30;;;9.10;;
58784;SDS011;44557;51.862;19.378;2024-03-23T09:22:03;12.00;;;7.90;;
58784;SDS011;44557;51.862;19.378;2024-03-23T09:24:05;12.30;;;8.50;;
58784;SDS011;44557;51.862;19.378;2024-03-23T09:26:07;13.10;;;8.40;;
58784;SDS011;44557;51.862;19.378;2024-03-23T09:28:09;13.00;;;8.00;;
58784;SDS011;44557;51.862;19.378;2024-03-23T09:30:11;13.50;;;8.20;;
58784;SDS011;44557;51.862;19.378;2024-03-23T09:32:13;13.10;;;8.40;;
58784;SDS011;44557;51.862;19.378;2024-03-23T09:34:15;12.90;;;9.10;;
58784;SDS011;44557;51.862;19.378;2024-03-23T09:36:18;12.40;;;8.00;;
58784;SDS011;44557;51.862;19.378;2024-03-23T09:38:22;15.20;;;8.60;;
58784;SDS011;44557;51.862;19.378;2024-03-23T09:40:24;12.90;;;8.80;;
58784;SDS011;44557;51.862;19.378;2024-03-23T09:42:27;14.20;;;9.00;;
58784;SDS011;44557;51.862;19.378;2024-03-23T09:44:29;14.40;;;9.30;;
58784;SDS011;44557;51.862;19.378;2024-03-23T09:46:30;14.50;;;8.60;;
58784;SDS011;44557;51.862;19.378;2024-03-23T09:48:36;13.80;;;9.40;;
58784;SDS011;44557;51.862;19.378;2024-03-23T09:50:38;12.90;;;8.90;;
58784;SDS011;44557;51.862;19.378;2024-03-23T09:52:40;14.20;;;9.90;;
58784;SDS011;44557;51.862;19.378;2024-03-23T09:54:45;13.50;;;8.80;;
58784;SDS011;44557;51.862;19.378;2024-03-23T09:56:47;12.20;;;8.60;;
58784;SDS011;44557;51.862;19.378;2024-03-23T09:58:48;15.50;;;8.70;;
58784;SDS011;44557;51.862;19.378;2024-03-23T10:00:50;11.70;;;8.50;;
58784;SDS011;44557;51.862;19.378;2024-03-23T10:02:52;12.90;;;9.10;;
58784;SDS011;44557;51.862;19.378;2024-03-23T10:04:56;12.40;;;8.60;;
58784;SDS011;44557;51.862;19.378;2024-03-23T10:07:09;13.50;;;8.20;;
58784;SDS011;44557;51.862;19.378;2024-03-23T10:09:18;12.90;;;8.80;;
58784;SDS011;44557;51.862;19.378;2024-03-23T10:11:20;11.80;;;8.30;;
58784;SDS011;44557;51.862;19.378;2024-03-23T10:13:25;12.70;;;8.80;;
58784;SDS011;44557;51.862;19.378;2024-03-23T10:15:28;13.30;;;7.70;;
58784;SDS011;44557;51.862;19.378;2024-03-23T10:17:30;13.40;;;8.90;;
58784;SDS011;44557;51.862;19.378;2024-03-23T10:19:32;10.70;;;7.90;;
58784;SDS011;44557;51.862;19.378;2024-03-23T10:22:36;11.80;;;8.00;;
58784;SDS011;44557;51.862;19.378;2024-03-23T10:24:39;12.40;;;8.30;;
58784;SDS011;44557;51.862;19.378;2024-03-23T10:26:40;12.20;;;8.20;;
58784;SDS011;44557;51.862;19.378;2024-03-23T10:31:10;12.40;;;8.40;;
58784;SDS011;44557;51.862;19.378;2024-03-23T10:33:14;12.60;;;8.70;;
58784;SDS011;44557;51.862;19.378;2024-03-23T10:35:18;13.20;;;8.90;;
58784;SDS011;44557;51.862;19.378;2024-03-23T10:37:23;11.60;;;7.90;;
58784;SDS011;44557;51.862;19.378;2024-03-23T10:39:25;12.50;;;7.90;;
58784;SDS011;44557;51.862;19.378;2024-03-23T10:41:28;13.50;;;8.70;;
58784;SDS011;44557;51.862;19.378;2024-03-23T10:43:33;11.70;;;8.10;;
58784;SDS011;44557;51.862;19.378;2024-03-23T10:45:36;12.40;;;8.20;;
58784;SDS011;44557;51.862;19.378;2024-03-23T10:47:38;12.40;;;8.40;;
58784;SDS011;44557;51.862;19.378;2024-03-23T10:49:39;11.90;;;7.50;;
58784;SDS011;44557;51.862;19.378;2024-03-23T10:51:41;13.90;;;8.30;;
58784;SDS011;44557;51.862;19.378;2024-03-23T10:53:43;11.10;;;7.40;;
58784;SDS011;44557;51.862;19.378;2024-03-23T10:55:48;12.70;;;7.80;;
58784;SDS011;44557;51.862;19.378;2024-03-23T10:57:52;11.30;;;8.00;;
58784;SDS011;44557;51.862;19.378;2024-03-23T10:59:56;11.10;;;7.80;;
58784;SDS011;44557;51.862;19.378;2024-03-23T11:01:59;12.00;;;8.00;;
58784;SDS011;44557;51.862;19.378;2024-03-23T11:04:04;11.50;;;7.70;;
58784;SDS011;44557;51.862;19.378;2024-03-23T11:06:06;12.30;;;8.60;;
58784;SDS011;44557;51.862;19.378;2024-03-23T11:08:09;12.20;;;8.00;;
58784;SDS011;44557;51.862;19.378;2024-03-23T11:10:24;11.60;;;7.90;;
58784;SDS011;44557;51.862;19.378;2024-03-23T11:12:27;12.30;;;8.20;;
58784;SDS011;44557;51.862;19.378;2024-03-23T11:14:35;13.20;;;7.50;;
58784;SDS011;44557;51.862;19.378;2024-03-23T11:16:36;11.60;;;8.20;;
58784;SDS011;44557;51.862;19.378;2024-03-23T11:18:43;13.00;;;8.20;;
58784;SDS011;44557;51.862;19.378;2024-03-23T11:20:45;12.60;;;8.20;;
58784;SDS011;44557;51.862;19.378;2024-03-23T11:22:47;12.00;;;8.10;;
58784;SDS011;44557;51.862;19.378;2024-03-23T11:24:52;12.30;;;8.50;;
58784;SDS011;44557;51.862;19.378;2024-03-23T11:26:54;12.50;;;7.70;;
58784;SDS011;44557;51.862;19.378;2024-03-23T11:29:08;11.40;;;7.40;;
58784;SDS011;44557;51.862;19.378;2024-03-23T11:31:13;10.20;;;7.60;;
58784;SDS011;44557;51.862;19.378;2024-03-23T11:33:16;10.70;;;7.80;;
58784;SDS011;44557;51.862;19.378;2024-03-23T11:35:31;13.10;;;8.10;;
58784;SDS011;44557;51.862;19.378;2024-03-23T11:37:36;11.80;;;7.70;;
58784;SDS011;44557;51.862;19.378;2024-03-23T11:39:38;12.20;;;7.90;;
58784;SDS011;44557;51.862;19.378;2024-03-23T11:41:50;11.50;;;8.10;;
58784;SDS011;44557;51.862;19.378;2024-03-23T11:43:52;13.10;;;8.50;;
58784;SDS011;44557;51.862;19.378;2024-03-23T11:45:54;12.00;;;8.60;;
58784;SDS011;44557;51.862;19.378;2024-03-23T11:48:01;13.20;;;9.00;;
58784;SDS011;44557;51.862;19.378;2024-03-23T11:50:07;13.00;;;9.00;;
58784;SDS011;44557;51.862;19.378;2024-03-23T11:52:09;11.60;;;8.40;;
58784;SDS011;44557;51.862;19.378;2024-03-23T11:54:11;14.60;;;9.80;;
58784;SDS011;44557;51.862;19.378;2024-03-23T11:56:12;13.60;;;8.80;;
58784;SDS011;44557;51.862;19.378;2024-03-23T11:58:15;14.40;;;9.60;;
58784;SDS011;44557;51.862;19.378;2024-03-23T12:00:21;14.20;;;10.00;;
58784;SDS011;44557;51.862;19.378;2024-03-23T12:02:24;13.80;;;9.30;;
58784;SDS011;44557;51.862;19.378;2024-03-23T12:04:29;13.10;;;9.10;;
58784;SDS011;44557;51.862;19.378;2024-03-23T12:06:31;12.20;;;8.70;;
58784;SDS011;44557;51.862;19.378;2024-03-23T12:08:33;13.40;;;9.10;;
58784;SDS011;44557;51.862;19.378;2024-03-23T12:10:39;12.30;;;9.00;;
58784;SDS011;44557;51.862;19.378;2024-03-23T12:12:41;12.50;;;9.20;;
58784;SDS011;44557;51.862;19.378;2024-03-23T12:14:42;14.00;;;9.10;;
58784;SDS011;44557;51.862;19.378;2024-03-23T12:16:45;13.30;;;9.30;;
58784;SDS011;44557;51.862;19.378;2024-03-23T12:18:47;12.50;;;8.60;;
58784;SDS011;44557;51.862;19.378;2024-03-23T12:20:53;11.50;;;8.00;;
58784;SDS011;44557;51.862;19.378;2024-03-23T12:23:04;12.50;;;8.70;;
58784;SDS011;44557;51.862;19.378;2024-03-23T12:25:15;12.00;;;8.50;;
58784;SDS011;44557;51.862;19.378;2024-03-23T12:27:17;12.80;;;9.00;;
58784;SDS011;44557;51.862;19.378;2024-03-23T12:29:19;15.80;;;9.60;;
58784;SDS011;44557;51.862;19.378;2024-03-23T12:31:21;12.80;;;8.50;;
58784;SDS011;44557;51.862;19.378;2024-03-23T12:33:23;11.40;;;8.90;;
58784;SDS011;44557;51.862;19.378;2024-03-23T12:35:25;12.30;;;7.80;;
58784;SDS011;44557;51.862;19.378;2024-03-23T12:37:26;11.30;;;8.30;;
58784;SDS011;44557;51.862;19.378;2024-03-23T12:39:29;14.10;;;8.80;;
58784;SDS011;44557;51.862;19.378;2024-03-23T12:41:31;12.20;;;8.40;;
58784;SDS011;44557;51.862;19.378;2024-03-23T12:43:33;13.80;;;8.20;;
58784;SDS011;44557;51.862;19.378;2024-03-23T12:45:34;12.20;;;8.40;;
58784;SDS011;44557;51.862;19.378;2024-03-23T12:47:36;12.60;;;8.20;;